JES3233 SANT-SABE
Flight info
| Callsign | JES3233 |
|---|---|
| Flight time | N/A |
| Altitude | 35000 |
| Route | PUBER3E PUBER UL550 ROS UT672 MULTA UW24 SNT SNT8Q |
| Aircraft | A21N/M-SDE3FGHIRWY/LB1 |
Departure
| Time | 2026-04-17 21:39 |
|---|---|
| Airport | Teniente Benjamín Matienzo International Airport (SANT) |
Arrival
| Time | N/A |
|---|---|
| Airport | Aeroparque Jorge Newbery (SABE) |
| Time | Latitude | Longitude | Altitude | Speed | Heading |
|---|---|---|---|---|---|
| 2026-04-17 21:00 | -26.83529 | -65.10749 | 1490 ft | 0 kts | 280° |
| 2026-04-17 21:31 | -26.83531 | -65.10735 | 1480 ft | 4 kts | 281° |
| 2026-04-17 21:32 | -26.83538 | -65.10707 | 1484 ft | 4 kts | 308° |
| 2026-04-17 21:32 | -26.83550 | -65.10699 | 1479 ft | 3 kts | 10° |
| 2026-04-17 21:32 | -26.83576 | -65.10704 | 1485 ft | 3 kts | 10° |
| 2026-04-17 21:32 | -26.83580 | -65.10705 | 1486 ft | 0 kts | 10° |
| 2026-04-17 21:34 | -26.83553 | -65.10699 | 1481 ft | 9 kts | 10° |
| 2026-04-17 21:35 | -26.83474 | -65.10678 | 1488 ft | 12 kts | 26° |
| 2026-04-17 21:35 | -26.83409 | -65.10622 | 1492 ft | 14 kts | 40° |
| 2026-04-17 21:35 | -26.83312 | -65.10531 | 1491 ft | 22 kts | 40° |
| 2026-04-17 21:35 | -26.83198 | -65.10422 | 1486 ft | 21 kts | 40° |
| 2026-04-17 21:36 | -26.83089 | -65.10320 | 1492 ft | 20 kts | 40° |
| 2026-04-17 21:36 | -26.82968 | -65.10265 | 1489 ft | 19 kts | 11° |
| 2026-04-17 21:36 | -26.82842 | -65.10239 | 1487 ft | 18 kts | 10° |
| 2026-04-17 21:36 | -26.82723 | -65.10216 | 1484 ft | 16 kts | 10° |
| 2026-04-17 21:37 | -26.82620 | -65.10196 | 1478 ft | 14 kts | 9° |
| 2026-04-17 21:37 | -26.82531 | -65.10179 | 1477 ft | 12 kts | 9° |
| 2026-04-17 21:37 | -26.82453 | -65.10190 | 1487 ft | 11 kts | 341° |
| 2026-04-17 21:37 | -26.82386 | -65.10200 | 1479 ft | 9 kts | 5° |
| 2026-04-17 21:38 | -26.82357 | -65.10166 | 1484 ft | 5 kts | 94° |
| 2026-04-17 21:38 | -26.82379 | -65.10151 | 1489 ft | 3 kts | 173° |
| 2026-04-17 21:38 | -26.82479 | -65.10167 | 1479 ft | 40 kts | 188° |
| 2026-04-17 21:38 | -26.82986 | -65.10267 | 1488 ft | 105 kts | 190° |
| 2026-04-17 21:39 | -26.83879 | -65.10443 | 1482 ft | 154 kts | 189° |
| 2026-04-17 21:39 | -26.85055 | -65.10674 | 1600 ft | 181 kts | 187° |
| 2026-04-17 21:39 | -26.86265 | -65.10852 | 2218 ft | 180 kts | 180° |
| 2026-04-17 21:39 | -26.87516 | -65.10750 | 2753 ft | 181 kts | 168° |
| 2026-04-17 21:40 | -26.88756 | -65.10474 | 3255 ft | 183 kts | 164° |
| 2026-04-17 21:40 | -26.90037 | -65.10074 | 3398 ft | 200 kts | 159° |
| 2026-04-17 21:40 | -26.91409 | -65.09492 | 3537 ft | 216 kts | 154° |
| 2026-04-17 21:40 | -26.92787 | -65.08707 | 3668 ft | 229 kts | 147° |
| 2026-04-17 21:41 | -26.94185 | -65.07712 | 3768 ft | 250 kts | 145° |
| 2026-04-17 21:41 | -26.95712 | -65.06611 | 4022 ft | 269 kts | 145° |
| 2026-04-17 21:41 | -26.97305 | -65.05470 | 4608 ft | 274 kts | 145° |
| 2026-04-17 21:41 | -26.98924 | -65.04315 | 5239 ft | 278 kts | 146° |
| 2026-04-17 21:42 | -27.00570 | -65.03142 | 5859 ft | 283 kts | 146° |
| 2026-04-17 21:42 | -27.02244 | -65.01949 | 6474 ft | 287 kts | 146° |
| 2026-04-17 21:42 | -27.03941 | -65.00736 | 7065 ft | 290 kts | 146° |
| 2026-04-17 21:42 | -27.05649 | -64.99515 | 7659 ft | 292 kts | 147° |
| 2026-04-17 21:43 | -27.07371 | -64.98282 | 8237 ft | 295 kts | 147° |
| 2026-04-17 21:43 | -27.09105 | -64.97040 | 8835 ft | 297 kts | 147° |
| 2026-04-17 21:43 | -27.10852 | -64.95788 | 9406 ft | 298 kts | 147° |
| 2026-04-17 21:43 | -27.12010 | -64.94956 | 9778 ft | 300 kts | 147° |
| 2026-04-17 21:44 | -27.13792 | -64.93676 | 10028 ft | 312 kts | 147° |
| 2026-04-17 21:44 | -27.15664 | -64.92331 | 10149 ft | 328 kts | 148° |
| 2026-04-17 21:44 | -27.17631 | -64.90913 | 10273 ft | 343 kts | 147° |
| 2026-04-17 21:44 | -27.19685 | -64.89430 | 10397 ft | 358 kts | 148° |
| 2026-04-17 21:45 | -27.21819 | -64.87891 | 10598 ft | 369 kts | 148° |
| 2026-04-17 21:45 | -27.24729 | -64.85796 | 11148 ft | 374 kts | 148° |
| 2026-04-17 21:45 | -27.26183 | -64.84749 | 11453 ft | 375 kts | 148° |
| 2026-04-17 21:45 | -27.28390 | -64.83160 | 11926 ft | 378 kts | 148° |
| 2026-04-17 21:46 | -27.30638 | -64.81541 | 12408 ft | 380 kts | 148° |
| 2026-04-17 21:46 | -27.32842 | -64.79953 | 12882 ft | 382 kts | 149° |
| 2026-04-17 21:46 | -27.35115 | -64.78311 | 13347 ft | 385 kts | 149° |
| 2026-04-17 21:46 | -27.37372 | -64.76680 | 13801 ft | 387 kts | 149° |
| 2026-04-17 21:47 | -27.39643 | -64.75041 | 14211 ft | 389 kts | 149° |
| 2026-04-17 21:47 | -27.41925 | -64.73389 | 14613 ft | 391 kts | 150° |
| 2026-04-17 21:47 | -27.44221 | -64.71726 | 15026 ft | 394 kts | 150° |
| 2026-04-17 21:47 | -27.46534 | -64.70053 | 15425 ft | 396 kts | 150° |
| 2026-04-17 21:48 | -27.48861 | -64.68368 | 15830 ft | 399 kts | 151° |
| 2026-04-17 21:48 | -27.51202 | -64.66670 | 16239 ft | 401 kts | 151° |
| 2026-04-17 21:48 | -27.53551 | -64.64970 | 16634 ft | 403 kts | 152° |
| 2026-04-17 21:48 | -27.55942 | -64.63302 | 17032 ft | 405 kts | 153° |
| 2026-04-17 21:49 | -27.58363 | -64.61676 | 17431 ft | 406 kts | 154° |
| 2026-04-17 21:49 | -27.60814 | -64.60058 | 17826 ft | 409 kts | 154° |
| 2026-04-17 21:49 | -27.63275 | -64.58441 | 18206 ft | 411 kts | 154° |
| 2026-04-17 21:49 | -27.65746 | -64.56810 | 18547 ft | 413 kts | 154° |
| 2026-04-17 21:50 | -27.68232 | -64.55155 | 18878 ft | 416 kts | 154° |
| 2026-04-17 21:50 | -27.70721 | -64.53482 | 19208 ft | 418 kts | 154° |
| 2026-04-17 21:50 | -27.73222 | -64.51794 | 19534 ft | 420 kts | 154° |
| 2026-04-17 21:50 | -27.75740 | -64.50094 | 19861 ft | 423 kts | 154° |
| 2026-04-17 21:51 | -27.78274 | -64.48382 | 20185 ft | 425 kts | 154° |
| 2026-04-17 21:51 | -27.80819 | -64.46663 | 20516 ft | 428 kts | 154° |
| 2026-04-17 21:51 | -27.83377 | -64.44935 | 20829 ft | 430 kts | 154° |
| 2026-04-17 21:51 | -27.85959 | -64.43193 | 21157 ft | 432 kts | 154° |
| 2026-04-17 21:52 | -27.88550 | -64.41449 | 21482 ft | 435 kts | 154° |
| 2026-04-17 21:52 | -27.91153 | -64.39696 | 21807 ft | 437 kts | 154° |
| 2026-04-17 21:52 | -27.93770 | -64.37929 | 22136 ft | 440 kts | 154° |
| 2026-04-17 21:52 | -27.96404 | -64.36145 | 22456 ft | 442 kts | 154° |
| 2026-04-17 21:53 | -27.99048 | -64.34353 | 22780 ft | 444 kts | 154° |
| 2026-04-17 21:53 | -28.01741 | -64.32530 | 23099 ft | 447 kts | 154° |
| 2026-04-17 21:53 | -28.04382 | -64.30744 | 23416 ft | 449 kts | 154° |
| 2026-04-17 21:53 | -28.07102 | -64.28902 | 23684 ft | 451 kts | 154° |